sensor_id;sensor_type;location;lat;lon;timestamp;P1;durP1;ratioP1;P2;durP2;ratioP2
44832;SDS011;30569;51.252;9.830;2023-03-16T00:00:42;4.10;;;2.50;;
44832;SDS011;30569;51.252;9.830;2023-03-16T00:03:09;9.40;;;2.97;;
44832;SDS011;30569;51.252;9.830;2023-03-16T00:05:35;8.03;;;3.00;;
44832;SDS011;30569;51.252;9.830;2023-03-16T00:08:01;8.80;;;3.20;;
44832;SDS011;30569;51.252;9.830;2023-03-16T00:10:26;11.47;;;3.10;;
44832;SDS011;30569;51.252;9.830;2023-03-16T00:12:52;6.27;;;3.60;;
44832;SDS011;30569;51.252;9.830;2023-03-16T00:15:19;7.50;;;3.10;;
44832;SDS011;30569;51.252;9.830;2023-03-16T00:17:44;9.53;;;3.40;;
44832;SDS011;30569;51.252;9.830;2023-03-16T00:20:12;10.60;;;3.70;;
44832;SDS011;30569;51.252;9.830;2023-03-16T00:22:39;5.77;;;3.40;;
44832;SDS011;30569;51.252;9.830;2023-03-16T00:25:06;6.60;;;3.07;;
44832;SDS011;30569;51.252;9.830;2023-03-16T00:27:33;7.03;;;2.97;;
44832;SDS011;30569;51.252;9.830;2023-03-16T00:29:58;12.03;;;3.50;;
44832;SDS011;30569;51.252;9.830;2023-03-16T00:32:28;8.10;;;3.17;;
44832;SDS011;30569;51.252;9.830;2023-03-16T00:34:56;7.80;;;3.20;;
44832;SDS011;30569;51.252;9.830;2023-03-16T00:37:22;6.63;;;3.57;;
44832;SDS011;30569;51.252;9.830;2023-03-16T00:39:49;7.60;;;4.53;;
44832;SDS011;30569;51.252;9.830;2023-03-16T00:42:16;7.23;;;3.63;;
44832;SDS011;30569;51.252;9.830;2023-03-16T00:44:42;6.23;;;3.03;;
44832;SDS011;30569;51.252;9.830;2023-03-16T00:47:08;6.90;;;3.23;;
44832;SDS011;30569;51.252;9.830;2023-03-16T00:49:34;10.07;;;3.20;;
44832;SDS011;30569;51.252;9.830;2023-03-16T00:52:04;9.60;;;3.00;;
44832;SDS011;30569;51.252;9.830;2023-03-16T00:54:31;5.40;;;3.00;;
44832;SDS011;30569;51.252;9.830;2023-03-16T00:56:58;5.50;;;2.80;;
44832;SDS011;30569;51.252;9.830;2023-03-16T00:59:24;7.10;;;2.97;;
44832;SDS011;30569;51.252;9.830;2023-03-16T01:01:53;8.60;;;3.10;;
44832;SDS011;30569;51.252;9.830;2023-03-16T01:04:19;7.43;;;3.53;;
44832;SDS011;30569;51.252;9.830;2023-03-16T01:06:46;4.53;;;2.90;;
44832;SDS011;30569;51.252;9.830;2023-03-16T01:09:12;5.80;;;2.67;;
44832;SDS011;30569;51.252;9.830;2023-03-16T01:11:39;6.80;;;2.60;;
44832;SDS011;30569;51.252;9.830;2023-03-16T01:14:07;7.80;;;3.00;;
44832;SDS011;30569;51.252;9.830;2023-03-16T01:16:34;7.37;;;2.57;;
44832;SDS011;30569;51.252;9.830;2023-03-16T01:18:59;6.53;;;2.70;;
44832;SDS011;30569;51.252;9.830;2023-03-16T01:21:25;4.83;;;2.87;;
44832;SDS011;30569;51.252;9.830;2023-03-16T01:23:51;6.17;;;2.50;;
44832;SDS011;30569;51.252;9.830;2023-03-16T01:26:18;4.43;;;2.40;;
44832;SDS011;30569;51.252;9.830;2023-03-16T01:28:45;7.77;;;2.93;;
44832;SDS011;30569;51.252;9.830;2023-03-16T01:31:11;4.57;;;2.50;;
44832;SDS011;30569;51.252;9.830;2023-03-16T01:33:38;5.67;;;2.70;;
44832;SDS011;30569;51.252;9.830;2023-03-16T01:38:40;4.80;;;2.73;;
44832;SDS011;30569;51.252;9.830;2023-03-16T01:41:06;7.53;;;2.67;;
44832;SDS011;30569;51.252;9.830;2023-03-16T01:43:33;5.67;;;2.73;;
44832;SDS011;30569;51.252;9.830;2023-03-16T01:48:44;7.20;;;2.40;;
44832;SDS011;30569;51.252;9.830;2023-03-16T01:54:07;6.63;;;3.13;;
44832;SDS011;30569;51.252;9.830;2023-03-16T01:56:50;6.10;;;2.37;;
44832;SDS011;30569;51.252;9.830;2023-03-16T01:59:22;7.23;;;2.47;;
44832;SDS011;30569;51.252;9.830;2023-03-16T02:01:53;7.27;;;2.67;;
44832;SDS011;30569;51.252;9.830;2023-03-16T02:07:06;5.60;;;2.97;;
44832;SDS011;30569;51.252;9.830;2023-03-16T02:09:34;7.47;;;3.03;;
44832;SDS011;30569;51.252;9.830;2023-03-16T02:12:02;5.53;;;2.50;;
44832;SDS011;30569;51.252;9.830;2023-03-16T02:14:28;4.70;;;2.60;;
44832;SDS011;30569;51.252;9.830;2023-03-16T02:16:54;5.53;;;2.50;;
44832;SDS011;30569;51.252;9.830;2023-03-16T02:19:40;8.93;;;2.80;;
44832;SDS011;30569;51.252;9.830;2023-03-16T02:22:22;6.33;;;2.70;;
44832;SDS011;30569;51.252;9.830;2023-03-16T02:24:49;5.63;;;2.80;;
44832;SDS011;30569;51.252;9.830;2023-03-16T02:27:19;5.60;;;2.70;;
44832;SDS011;30569;51.252;9.830;2023-03-16T02:30:19;5.10;;;2.50;;
44832;SDS011;30569;51.252;9.830;2023-03-16T02:32:45;5.70;;;3.13;;
44832;SDS011;30569;51.252;9.830;2023-03-16T02:35:15;9.47;;;3.10;;
44832;SDS011;30569;51.252;9.830;2023-03-16T02:37:41;7.53;;;3.10;;
44832;SDS011;30569;51.252;9.830;2023-03-16T02:40:40;7.30;;;3.13;;
44832;SDS011;30569;51.252;9.830;2023-03-16T02:45:32;8.73;;;3.07;;
44832;SDS011;30569;51.252;9.830;2023-03-16T02:48:17;7.07;;;3.10;;
44832;SDS011;30569;51.252;9.830;2023-03-16T02:50:51;5.80;;;2.67;;
44832;SDS011;30569;51.252;9.830;2023-03-16T02:53:18;5.77;;;3.13;;
44832;SDS011;30569;51.252;9.830;2023-03-16T02:55:44;5.67;;;2.97;;
44832;SDS011;30569;51.252;9.830;2023-03-16T02:58:11;8.77;;;3.47;;
44832;SDS011;30569;51.252;9.830;2023-03-16T03:00:37;8.80;;;3.60;;
44832;SDS011;30569;51.252;9.830;2023-03-16T03:03:04;5.63;;;3.30;;
44832;SDS011;30569;51.252;9.830;2023-03-16T03:05:30;5.73;;;3.20;;
44832;SDS011;30569;51.252;9.830;2023-03-16T03:07:55;6.47;;;2.97;;
44832;SDS011;30569;51.252;9.830;2023-03-16T03:10:21;9.30;;;3.30;;
44832;SDS011;30569;51.252;9.830;2023-03-16T03:12:47;6.83;;;3.10;;
44832;SDS011;30569;51.252;9.830;2023-03-16T03:15:13;7.80;;;3.60;;
44832;SDS011;30569;51.252;9.830;2023-03-16T03:17:39;8.33;;;3.73;;
44832;SDS011;30569;51.252;9.830;2023-03-16T03:20:07;8.67;;;4.67;;
44832;SDS011;30569;51.252;9.830;2023-03-16T03:22:44;9.83;;;3.60;;
44832;SDS011;30569;51.252;9.830;2023-03-16T03:25:12;6.37;;;3.57;;
44832;SDS011;30569;51.252;9.830;2023-03-16T03:27:40;9.80;;;3.40;;
44832;SDS011;30569;51.252;9.830;2023-03-16T03:30:07;7.80;;;4.10;;
44832;SDS011;30569;51.252;9.830;2023-03-16T03:32:34;8.97;;;3.83;;
44832;SDS011;30569;51.252;9.830;2023-03-16T03:34:59;9.80;;;4.40;;
44832;SDS011;30569;51.252;9.830;2023-03-16T03:37:25;7.93;;;4.43;;
44832;SDS011;30569;51.252;9.830;2023-03-16T03:39:50;6.97;;;3.70;;
44832;SDS011;30569;51.252;9.830;2023-03-16T03:42:17;8.50;;;4.73;;
44832;SDS011;30569;51.252;9.830;2023-03-16T03:44:43;12.37;;;4.93;;
44832;SDS011;30569;51.252;9.830;2023-03-16T03:47:08;11.43;;;4.57;;
44832;SDS011;30569;51.252;9.830;2023-03-16T03:49:34;9.23;;;4.73;;
44832;SDS011;30569;51.252;9.830;2023-03-16T03:52:00;10.17;;;4.60;;
44832;SDS011;30569;51.252;9.830;2023-03-16T03:54:28;10.57;;;5.27;;
44832;SDS011;30569;51.252;9.830;2023-03-16T03:56:55;12.17;;;4.80;;
44832;SDS011;30569;51.252;9.830;2023-03-16T03:59:20;9.67;;;5.00;;
44832;SDS011;30569;51.252;9.830;2023-03-16T04:01:46;22.60;;;10.80;;
44832;SDS011;30569;51.252;9.830;2023-03-16T04:04:13;13.07;;;4.60;;
44832;SDS011;30569;51.252;9.830;2023-03-16T04:06:39;14.20;;;6.27;;
44832;SDS011;30569;51.252;9.830;2023-03-16T04:09:05;13.37;;;5.87;;
44832;SDS011;30569;51.252;9.830;2023-03-16T04:11:31;17.90;;;9.23;;
44832;SDS011;30569;51.252;9.830;2023-03-16T04:13:57;27.60;;;13.47;;
44832;SDS011;30569;51.252;9.830;2023-03-16T04:16:23;28.60;;;11.33;;
44832;SDS011;30569;51.252;9.830;2023-03-16T04:18:51;20.30;;;9.20;;
44832;SDS011;30569;51.252;9.830;2023-03-16T04:21:18;17.73;;;7.83;;
44832;SDS011;30569;51.252;9.830;2023-03-16T04:23:44;11.23;;;6.40;;
44832;SDS011;30569;51.252;9.830;2023-03-16T04:26:10;9.37;;;4.80;;
44832;SDS011;30569;51.252;9.830;2023-03-16T04:28:36;8.67;;;4.50;;
44832;SDS011;30569;51.252;9.830;2023-03-16T04:31:03;10.53;;;4.43;;
44832;SDS011;30569;51.252;9.830;2023-03-16T04:33:31;10.07;;;4.50;;
44832;SDS011;30569;51.252;9.830;2023-03-16T04:35:57;9.07;;;4.67;;
44832;SDS011;30569;51.252;9.830;2023-03-16T04:38:23;17.17;;;7.77;;
44832;SDS011;30569;51.252;9.830;2023-03-16T04:40:48;10.30;;;5.57;;
44832;SDS011;30569;51.252;9.830;2023-03-16T04:43:14;15.80;;;7.27;;
44832;SDS011;30569;51.252;9.830;2023-03-16T04:45:40;10.63;;;5.33;;
44832;SDS011;30569;51.252;9.830;2023-03-16T04:48:06;8.93;;;5.37;;
44832;SDS011;30569;51.252;9.830;2023-03-16T04:50:31;11.40;;;5.87;;
44832;SDS011;30569;51.252;9.830;2023-03-16T04:52:57;12.87;;;6.17;;
44832;SDS011;30569;51.252;9.830;2023-03-16T04:55:23;10.20;;;5.43;;
44832;SDS011;30569;51.252;9.830;2023-03-16T04:57:48;13.87;;;6.77;;
44832;SDS011;30569;51.252;9.830;2023-03-16T05:00:14;9.77;;;4.87;;
44832;SDS011;30569;51.252;9.830;2023-03-16T05:02:44;11.47;;;5.07;;
44832;SDS011;30569;51.252;9.830;2023-03-16T05:05:10;10.53;;;5.20;;
44832;SDS011;30569;51.252;9.830;2023-03-16T05:07:35;7.03;;;3.80;;
44832;SDS011;30569;51.252;9.830;2023-03-16T05:10:01;7.90;;;4.10;;
44832;SDS011;30569;51.252;9.830;2023-03-16T05:12:27;10.73;;;4.50;;
44832;SDS011;30569;51.252;9.830;2023-03-16T05:14:53;6.90;;;3.87;;
44832;SDS011;30569;51.252;9.830;2023-03-16T05:17:18;6.73;;;4.50;;
44832;SDS011;30569;51.252;9.830;2023-03-16T05:19:44;8.90;;;4.53;;
44832;SDS011;30569;51.252;9.830;2023-03-16T05:22:09;12.63;;;4.10;;
44832;SDS011;30569;51.252;9.830;2023-03-16T05:24:35;11.97;;;4.77;;
44832;SDS011;30569;51.252;9.830;2023-03-16T05:27:01;10.77;;;4.63;;
44832;SDS011;30569;51.252;9.830;2023-03-16T05:29:27;7.40;;;3.93;;
44832;SDS011;30569;51.252;9.830;2023-03-16T05:31:55;10.23;;;4.50;;
44832;SDS011;30569;51.252;9.830;2023-03-16T05:34:21;6.80;;;3.50;;
44832;SDS011;30569;51.252;9.830;2023-03-16T05:36:46;6.20;;;3.50;;
44832;SDS011;30569;51.252;9.830;2023-03-16T05:39:12;6.00;;;3.50;;
44832;SDS011;30569;51.252;9.830;2023-03-16T05:41:38;10.97;;;4.30;;
44832;SDS011;30569;51.252;9.830;2023-03-16T05:44:04;7.30;;;3.70;;
44832;SDS011;30569;51.252;9.830;2023-03-16T05:46:30;14.27;;;5.00;;
44832;SDS011;30569;51.252;9.830;2023-03-16T05:48:56;7.43;;;3.70;;
44832;SDS011;30569;51.252;9.830;2023-03-16T05:51:21;6.93;;;3.13;;
44832;SDS011;30569;51.252;9.830;2023-03-16T05:53:50;10.00;;;4.00;;
44832;SDS011;30569;51.252;9.830;2023-03-16T05:56:20;9.47;;;4.73;;
44832;SDS011;30569;51.252;9.830;2023-03-16T05:58:50;8.83;;;4.00;;
44832;SDS011;30569;51.252;9.830;2023-03-16T06:01:16;8.23;;;3.53;;
44832;SDS011;30569;51.252;9.830;2023-03-16T06:03:44;8.33;;;4.00;;
44832;SDS011;30569;51.252;9.830;2023-03-16T06:06:10;8.97;;;3.97;;
44832;SDS011;30569;51.252;9.830;2023-03-16T06:08:36;10.10;;;4.53;;
44832;SDS011;30569;51.252;9.830;2023-03-16T06:11:01;8.70;;;3.90;;
44832;SDS011;30569;51.252;9.830;2023-03-16T06:13:28;10.43;;;4.07;;
44832;SDS011;30569;51.252;9.830;2023-03-16T06:15:54;12.63;;;3.63;;
44832;SDS011;30569;51.252;9.830;2023-03-16T06:18:19;9.17;;;3.60;;
44832;SDS011;30569;51.252;9.830;2023-03-16T06:20:45;10.30;;;3.97;;
44832;SDS011;30569;51.252;9.830;2023-03-16T06:23:11;9.00;;;3.70;;
44832;SDS011;30569;51.252;9.830;2023-03-16T06:25:37;11.83;;;4.07;;
44832;SDS011;30569;51.252;9.830;2023-03-16T06:28:03;8.73;;;3.60;;
44832;SDS011;30569;51.252;9.830;2023-03-16T06:30:30;11.33;;;3.80;;
44832;SDS011;30569;51.252;9.830;2023-03-16T06:32:55;10.17;;;4.40;;
44832;SDS011;30569;51.252;9.830;2023-03-16T06:35:23;7.50;;;3.60;;
44832;SDS011;30569;51.252;9.830;2023-03-16T06:37:49;8.63;;;3.97;;
44832;SDS011;30569;51.252;9.830;2023-03-16T06:40:15;8.20;;;4.17;;
44832;SDS011;30569;51.252;9.830;2023-03-16T06:42:41;72.80;;;37.17;;
44832;SDS011;30569;51.252;9.830;2023-03-16T06:45:07;42.20;;;20.17;;
44832;SDS011;30569;51.252;9.830;2023-03-16T06:47:35;24.07;;;12.27;;
44832;SDS011;30569;51.252;9.830;2023-03-16T06:50:00;26.00;;;12.27;;
44832;SDS011;30569;51.252;9.830;2023-03-16T06:52:26;20.07;;;11.57;;
44832;SDS011;30569;51.252;9.830;2023-03-16T06:54:51;18.57;;;8.33;;
44832;SDS011;30569;51.252;9.830;2023-03-16T06:57:17;23.13;;;10.63;;
44832;SDS011;30569;51.252;9.830;2023-03-16T06:59:42;13.37;;;4.30;;
44832;SDS011;30569;51.252;9.830;2023-03-16T07:02:10;9.27;;;5.10;;
44832;SDS011;30569;51.252;9.830;2023-03-16T07:04:37;13.87;;;4.47;;
44832;SDS011;30569;51.252;9.830;2023-03-16T07:07:02;10.00;;;4.73;;
44832;SDS011;30569;51.252;9.830;2023-03-16T07:09:28;8.43;;;4.50;;
44832;SDS011;30569;51.252;9.830;2023-03-16T07:11:53;11.57;;;5.37;;
44832;SDS011;30569;51.252;9.830;2023-03-16T07:14:19;9.70;;;4.83;;
44832;SDS011;30569;51.252;9.830;2023-03-16T07:16:47;12.00;;;4.90;;
44832;SDS011;30569;51.252;9.830;2023-03-16T07:19:12;10.90;;;5.50;;
44832;SDS011;30569;51.252;9.830;2023-03-16T07:21:38;7.40;;;3.57;;
44832;SDS011;30569;51.252;9.830;2023-03-16T07:24:04;8.73;;;3.50;;
44832;SDS011;30569;51.252;9.830;2023-03-16T07:26:31;10.83;;;4.93;;
44832;SDS011;30569;51.252;9.830;2023-03-16T07:28:59;10.10;;;5.10;;
44832;SDS011;30569;51.252;9.830;2023-03-16T07:31:25;8.20;;;4.07;;
44832;SDS011;30569;51.252;9.830;2023-03-16T07:33:50;8.30;;;4.27;;
44832;SDS011;30569;51.252;9.830;2023-03-16T07:36:16;12.73;;;4.20;;
44832;SDS011;30569;51.252;9.830;2023-03-16T07:38:43;10.37;;;3.63;;
44832;SDS011;30569;51.252;9.830;2023-03-16T07:41:08;8.10;;;3.53;;
44832;SDS011;30569;51.252;9.830;2023-03-16T07:43:34;9.50;;;2.93;;
44832;SDS011;30569;51.252;9.830;2023-03-16T07:46:00;13.80;;;3.90;;
44832;SDS011;30569;51.252;9.830;2023-03-16T07:48:26;10.80;;;4.10;;
44832;SDS011;30569;51.252;9.830;2023-03-16T07:50:52;28.97;;;10.57;;
44832;SDS011;30569;51.252;9.830;2023-03-16T07:53:18;30.57;;;10.03;;
44832;SDS011;30569;51.252;9.830;2023-03-16T07:55:44;14.87;;;5.87;;
44832;SDS011;30569;51.252;9.830;2023-03-16T07:58:10;9.60;;;3.50;;
44832;SDS011;30569;51.252;9.830;2023-03-16T08:00:37;11.57;;;5.00;;
44832;SDS011;30569;51.252;9.830;2023-03-16T08:03:03;7.97;;;3.90;;
44832;SDS011;30569;51.252;9.830;2023-03-16T08:05:29;6.73;;;3.20;;
44832;SDS011;30569;51.252;9.830;2023-03-16T08:07:56;9.33;;;4.20;;
44832;SDS011;30569;51.252;9.830;2023-03-16T08:10:23;12.40;;;5.53;;
44832;SDS011;30569;51.252;9.830;2023-03-16T08:12:49;8.80;;;3.83;;
44832;SDS011;30569;51.252;9.830;2023-03-16T08:15:15;8.90;;;3.77;;
44832;SDS011;30569;51.252;9.830;2023-03-16T08:17:41;20.63;;;7.87;;
44832;SDS011;30569;51.252;9.830;2023-03-16T08:20:07;7.23;;;3.43;;
44832;SDS011;30569;51.252;9.830;2023-03-16T08:22:34;16.60;;;6.93;;
44832;SDS011;30569;51.252;9.830;2023-03-16T08:25:01;19.23;;;9.37;;
44832;SDS011;30569;51.252;9.830;2023-03-16T08:27:28;8.37;;;3.80;;
44832;SDS011;30569;51.252;9.830;2023-03-16T08:29:53;10.03;;;3.73;;
44832;SDS011;30569;51.252;9.830;2023-03-16T08:32:19;8.77;;;3.67;;
44832;SDS011;30569;51.252;9.830;2023-03-16T08:34:46;7.40;;;3.83;;
44832;SDS011;30569;51.252;9.830;2023-03-16T08:37:11;7.10;;;4.03;;
44832;SDS011;30569;51.252;9.830;2023-03-16T08:39:41;4.43;;;2.50;;
44832;SDS011;30569;51.252;9.830;2023-03-16T08:42:07;5.73;;;2.57;;
44832;SDS011;30569;51.252;9.830;2023-03-16T08:44:34;6.93;;;2.50;;
44832;SDS011;30569;51.252;9.830;2023-03-16T08:47:00;7.90;;;2.57;;
44832;SDS011;30569;51.252;9.830;2023-03-16T08:49:26;6.10;;;2.50;;
44832;SDS011;30569;51.252;9.830;2023-03-16T08:51:53;7.53;;;2.65;;
44832;SDS011;30569;51.252;9.830;2023-03-16T08:54:18;9.60;;;4.60;;
44832;SDS011;30569;51.252;9.830;2023-03-16T08:56:44;6.22;;;3.10;;
44832;SDS011;30569;51.252;9.830;2023-03-16T08:59:09;9.65;;;3.58;;
44832;SDS011;30569;51.252;9.830;2023-03-16T09:01:35;6.15;;;3.15;;
44832;SDS011;30569;51.252;9.830;2023-03-16T09:04:00;11.63;;;5.13;;
44832;SDS011;30569;51.252;9.830;2023-03-16T09:06:27;6.80;;;2.35;;
44832;SDS011;30569;51.252;9.830;2023-03-16T09:08:53;5.68;;;1.73;;
44832;SDS011;30569;51.252;9.830;2023-03-16T09:11:20;6.27;;;2.17;;
44832;SDS011;30569;51.252;9.830;2023-03-16T09:13:46;6.73;;;2.50;;
44832;SDS011;30569;51.252;9.830;2023-03-16T09:16:12;7.23;;;2.20;;
44832;SDS011;30569;51.252;9.830;2023-03-16T09:18:39;6.40;;;2.90;;
44832;SDS011;30569;51.252;9.830;2023-03-16T09:21:06;7.18;;;2.70;;
44832;SDS011;30569;51.252;9.830;2023-03-16T09:23:34;6.70;;;3.33;;
44832;SDS011;30569;51.252;9.830;2023-03-16T09:26:02;6.68;;;3.22;;
44832;SDS011;30569;51.252;9.830;2023-03-16T09:28:31;5.25;;;2.28;;
44832;SDS011;30569;51.252;9.830;2023-03-16T09:30:59;7.35;;;2.20;;
44832;SDS011;30569;51.252;9.830;2023-03-16T09:33:25;8.25;;;2.40;;
44832;SDS011;30569;51.252;9.830;2023-03-16T09:35:53;4.53;;;1.70;;
44832;SDS011;30569;51.252;9.830;2023-03-16T09:38:21;6.60;;;2.20;;
44832;SDS011;30569;51.252;9.830;2023-03-16T09:40:49;4.13;;;1.95;;
44832;SDS011;30569;51.252;9.830;2023-03-16T09:43:50;6.05;;;1.98;;
44832;SDS011;30569;51.252;9.830;2023-03-16T09:46:41;4.78;;;2.00;;
44832;SDS011;30569;51.252;9.830;2023-03-16T09:49:10;5.72;;;2.05;;
44832;SDS011;30569;51.252;9.830;2023-03-16T09:54:35;5.95;;;2.40;;
44832;SDS011;30569;51.252;9.830;2023-03-16T09:57:54;5.07;;;2.17;;
44832;SDS011;30569;51.252;9.830;2023-03-16T10:00:17;4.65;;;2.30;;
44832;SDS011;30569;51.252;9.830;2023-03-16T10:05:34;4.55;;;2.10;;
44832;SDS011;30569;51.252;9.830;2023-03-16T10:08:12;6.07;;;2.20;;
44832;SDS011;30569;51.252;9.830;2023-03-16T10:13:37;4.97;;;2.00;;
44832;SDS011;30569;51.252;9.830;2023-03-16T10:19:09;5.70;;;2.30;;
44832;SDS011;30569;51.252;9.830;2023-03-16T10:21:38;6.07;;;2.65;;
44832;SDS011;30569;51.252;9.830;2023-03-16T10:24:23;4.97;;;2.65;;
44832;SDS011;30569;51.252;9.830;2023-03-16T10:27:05;7.05;;;2.80;;
44832;SDS011;30569;51.252;9.830;2023-03-16T10:29:45;5.75;;;2.30;;
44832;SDS011;30569;51.252;9.830;2023-03-16T10:32:12;4.55;;;2.20;;
44832;SDS011;30569;51.252;9.830;2023-03-16T10:34:41;6.22;;;2.40;;
44832;SDS011;30569;51.252;9.830;2023-03-16T10:37:10;5.50;;;2.45;;
44832;SDS011;30569;51.252;9.830;2023-03-16T10:39:38;5.65;;;2.30;;
44832;SDS011;30569;51.252;9.830;2023-03-16T10:42:08;5.28;;;2.15;;
44832;SDS011;30569;51.252;9.830;2023-03-16T10:44:42;4.75;;;2.10;;
44832;SDS011;30569;51.252;9.830;2023-03-16T10:47:17;5.22;;;2.55;;
44832;SDS011;30569;51.252;9.830;2023-03-16T10:49:46;4.23;;;2.10;;
44832;SDS011;30569;51.252;9.830;2023-03-16T10:54:55;6.03;;;2.40;;
44832;SDS011;30569;51.252;9.830;2023-03-16T10:57:24;6.20;;;2.50;;
44832;SDS011;30569;51.252;9.830;2023-03-16T10:59:55;7.23;;;2.63;;
44832;SDS011;30569;51.252;9.830;2023-03-16T11:02:32;6.87;;;2.30;;
44832;SDS011;30569;51.252;9.830;2023-03-16T11:05:09;5.40;;;2.33;;
44832;SDS011;30569;51.252;9.830;2023-03-16T11:07:36;5.53;;;2.40;;
44832;SDS011;30569;51.252;9.830;2023-03-16T11:10:11;4.83;;;2.40;;
44832;SDS011;30569;51.252;9.830;2023-03-16T11:12:49;5.17;;;2.40;;
44832;SDS011;30569;51.252;9.830;2023-03-16T11:15:15;6.00;;;2.37;;
44832;SDS011;30569;51.252;9.830;2023-03-16T11:17:43;5.73;;;2.40;;
44832;SDS011;30569;51.252;9.830;2023-03-16T11:20:15;6.63;;;2.37;;
44832;SDS011;30569;51.252;9.830;2023-03-16T11:22:43;6.87;;;2.40;;
44832;SDS011;30569;51.252;9.830;2023-03-16T11:25:23;5.93;;;2.45;;
44832;SDS011;30569;51.252;9.830;2023-03-16T11:33:10;8.00;;;2.40;;
44832;SDS011;30569;51.252;9.830;2023-03-16T11:35:45;4.67;;;2.10;;
44832;SDS011;30569;51.252;9.830;2023-03-16T11:38:32;5.53;;;2.70;;
44832;SDS011;30569;51.252;9.830;2023-03-16T11:41:05;6.70;;;2.40;;
44832;SDS011;30569;51.252;9.830;2023-03-16T11:43:51;5.68;;;2.20;;
44832;SDS011;30569;51.252;9.830;2023-03-16T12:08:16;5.45;;;2.47;;
44832;SDS011;30569;51.252;9.830;2023-03-16T12:10:55;5.15;;;1.92;;
44832;SDS011;30569;51.252;9.830;2023-03-16T12:16:25;5.35;;;2.25;;
44832;SDS011;30569;51.252;9.830;2023-03-16T12:18:58;5.90;;;1.90;;
44832;SDS011;30569;51.252;9.830;2023-03-16T12:21:27;6.20;;;1.95;;
44832;SDS011;30569;51.252;9.830;2023-03-16T12:24:03;4.60;;;1.75;;
44832;SDS011;30569;51.252;9.830;2023-03-16T12:26:37;5.77;;;2.40;;
44832;SDS011;30569;51.252;9.830;2023-03-16T12:29:13;6.60;;;2.10;;
44832;SDS011;30569;51.252;9.830;2023-03-16T12:31:48;4.35;;;2.03;;
44832;SDS011;30569;51.252;9.830;2023-03-16T12:36:56;5.80;;;2.33;;
44832;SDS011;30569;51.252;9.830;2023-03-16T12:42:20;5.47;;;1.90;;
44832;SDS011;30569;51.252;9.830;2023-03-16T12:44:56;4.50;;;2.10;;
44832;SDS011;30569;51.252;9.830;2023-03-16T12:50:30;5.68;;;2.00;;
44832;SDS011;30569;51.252;9.830;2023-03-16T12:52:55;6.13;;;2.08;;
44832;SDS011;30569;51.252;9.830;2023-03-16T12:58:00;4.53;;;2.03;;
44832;SDS011;30569;51.252;9.830;2023-03-16T13:00:35;5.88;;;2.00;;
44832;SDS011;30569;51.252;9.830;2023-03-16T13:03:04;5.18;;;2.10;;
44832;SDS011;30569;51.252;9.830;2023-03-16T13:05:42;5.00;;;2.00;;
44832;SDS011;30569;51.252;9.830;2023-03-16T13:08:10;4.70;;;1.80;;
44832;SDS011;30569;51.252;9.830;2023-03-16T13:10:40;5.20;;;2.33;;
44832;SDS011;30569;51.252;9.830;2023-03-16T13:13:10;4.05;;;1.98;;
44832;SDS011;30569;51.252;9.830;2023-03-16T13:15:39;3.70;;;1.92;;
44832;SDS011;30569;51.252;9.830;2023-03-16T13:20:56;5.85;;;1.90;;
44832;SDS011;30569;51.252;9.830;2023-03-16T13:23:23;4.60;;;1.83;;
44832;SDS011;30569;51.252;9.830;2023-03-16T13:26:00;3.72;;;1.73;;
44832;SDS011;30569;51.252;9.830;2023-03-16T13:28:30;4.22;;;1.90;;
44832;SDS011;30569;51.252;9.830;2023-03-16T13:30:58;3.88;;;1.60;;
44832;SDS011;30569;51.252;9.830;2023-03-16T13:33:26;3.55;;;1.60;;
44832;SDS011;30569;51.252;9.830;2023-03-16T13:35:55;3.63;;;1.60;;
44832;SDS011;30569;51.252;9.830;2023-03-16T13:38:23;4.68;;;1.90;;
44832;SDS011;30569;51.252;9.830;2023-03-16T13:40:53;4.75;;;1.60;;
44832;SDS011;30569;51.252;9.830;2023-03-16T13:43:32;3.67;;;1.65;;
44832;SDS011;30569;51.252;9.830;2023-03-16T13:46:17;4.43;;;1.80;;
44832;SDS011;30569;51.252;9.830;2023-03-16T13:48:48;4.90;;;1.70;;
44832;SDS011;30569;51.252;9.830;2023-03-16T13:51:16;4.45;;;1.70;;
44832;SDS011;30569;51.252;9.830;2023-03-16T13:53:43;4.10;;;1.90;;
44832;SDS011;30569;51.252;9.830;2023-03-16T13:56:16;5.20;;;2.13;;
44832;SDS011;30569;51.252;9.830;2023-03-16T13:58:49;4.65;;;1.83;;
44832;SDS011;30569;51.252;9.830;2023-03-16T14:01:29;4.00;;;1.70;;
44832;SDS011;30569;51.252;9.830;2023-03-16T14:03:57;4.65;;;1.73;;
44832;SDS011;30569;51.252;9.830;2023-03-16T14:06:29;3.97;;;1.90;;
44832;SDS011;30569;51.252;9.830;2023-03-16T14:08:58;6.20;;;2.35;;
44832;SDS011;30569;51.252;9.830;2023-03-16T14:11:28;4.45;;;1.95;;
44832;SDS011;30569;51.252;9.830;2023-03-16T14:13:55;4.13;;;1.90;;
44832;SDS011;30569;51.252;9.830;2023-03-16T14:16:22;4.63;;;2.08;;
44832;SDS011;30569;51.252;9.830;2023-03-16T14:18:51;4.20;;;2.00;;
44832;SDS011;30569;51.252;9.830;2023-03-16T14:21:22;4.22;;;1.90;;
44832;SDS011;30569;51.252;9.830;2023-03-16T14:23:53;3.63;;;1.90;;
44832;SDS011;30569;51.252;9.830;2023-03-16T14:26:22;6.05;;;2.33;;
44832;SDS011;30569;51.252;9.830;2023-03-16T14:29:05;5.53;;;1.93;;
44832;SDS011;30569;51.252;9.830;2023-03-16T14:31:39;6.25;;;2.53;;
44832;SDS011;30569;51.252;9.830;2023-03-16T14:34:17;5.03;;;2.28;;
44832;SDS011;30569;51.252;9.830;2023-03-16T14:36:46;5.93;;;2.85;;
44832;SDS011;30569;51.252;9.830;2023-03-16T14:39:13;5.75;;;2.08;;
44832;SDS011;30569;51.252;9.830;2023-03-16T14:41:40;5.40;;;2.08;;
44832;SDS011;30569;51.252;9.830;2023-03-16T14:44:27;4.80;;;2.00;;
44832;SDS011;30569;51.252;9.830;2023-03-16T14:46:56;5.83;;;2.00;;
44832;SDS011;30569;51.252;9.830;2023-03-16T14:49:28;4.53;;;2.25;;
44832;SDS011;30569;51.252;9.830;2023-03-16T14:52:14;4.77;;;2.30;;
44832;SDS011;30569;51.252;9.830;2023-03-16T14:54:51;6.90;;;2.20;;
44832;SDS011;30569;51.252;9.830;2023-03-16T14:57:18;4.25;;;2.00;;
44832;SDS011;30569;51.252;9.830;2023-03-16T14:59:45;4.67;;;2.30;;
44832;SDS011;30569;51.252;9.830;2023-03-16T15:02:18;4.07;;;1.90;;
44832;SDS011;30569;51.252;9.830;2023-03-16T15:04:56;4.07;;;2.10;;
44832;SDS011;30569;51.252;9.830;2023-03-16T15:07:29;4.37;;;2.20;;
44832;SDS011;30569;51.252;9.830;2023-03-16T15:09:59;4.60;;;2.07;;
44832;SDS011;30569;51.252;9.830;2023-03-16T15:12:46;5.23;;;2.27;;
44832;SDS011;30569;51.252;9.830;2023-03-16T15:15:18;5.80;;;2.10;;
44832;SDS011;30569;51.252;9.830;2023-03-16T15:17:46;5.17;;;2.40;;
44832;SDS011;30569;51.252;9.830;2023-03-16T15:20:15;4.33;;;2.20;;
44832;SDS011;30569;51.252;9.830;2023-03-16T15:22:47;4.60;;;2.10;;
44832;SDS011;30569;51.252;9.830;2023-03-16T15:27:52;6.83;;;2.23;;
44832;SDS011;30569;51.252;9.830;2023-03-16T15:30:26;4.87;;;2.50;;
44832;SDS011;30569;51.252;9.830;2023-03-16T15:32:52;5.47;;;2.20;;
44832;SDS011;30569;51.252;9.830;2023-03-16T15:35:18;4.63;;;2.30;;
44832;SDS011;30569;51.252;9.830;2023-03-16T15:37:44;6.67;;;2.40;;
44832;SDS011;30569;51.252;9.830;2023-03-16T15:42:40;8.20;;;2.67;;
44832;SDS011;30569;51.252;9.830;2023-03-16T15:45:10;5.10;;;2.50;;
44832;SDS011;30569;51.252;9.830;2023-03-16T15:47:37;5.00;;;2.30;;
44832;SDS011;30569;51.252;9.830;2023-03-16T15:50:04;5.87;;;2.47;;
44832;SDS011;30569;51.252;9.830;2023-03-16T15:52:31;6.93;;;2.80;;
44832;SDS011;30569;51.252;9.830;2023-03-16T15:54:58;6.40;;;3.00;;
44832;SDS011;30569;51.252;9.830;2023-03-16T15:57:31;4.93;;;2.47;;
44832;SDS011;30569;51.252;9.830;2023-03-16T15:59:57;5.33;;;2.37;;
44832;SDS011;30569;51.252;9.830;2023-03-16T16:02:32;6.60;;;2.60;;
44832;SDS011;30569;51.252;9.830;2023-03-16T16:04:58;5.03;;;2.70;;
44832;SDS011;30569;51.252;9.830;2023-03-16T16:07:23;6.27;;;2.77;;
44832;SDS011;30569;51.252;9.830;2023-03-16T16:09:49;5.33;;;2.53;;
44832;SDS011;30569;51.252;9.830;2023-03-16T16:12:15;4.67;;;2.43;;